sensor_id;sensor_type;location;lat;lon;timestamp;temperature;humidity
37794;DHT22;23632;48.826;15.176;2023-02-18T00:01:35;13.00;73.40
37794;DHT22;23632;48.826;15.176;2023-02-18T00:04:02;12.90;73.60
37794;DHT22;23632;48.826;15.176;2023-02-18T00:06:31;12.90;73.60
37794;DHT22;23632;48.826;15.176;2023-02-18T00:09:00;12.90;73.60
37794;DHT22;23632;48.826;15.176;2023-02-18T00:11:32;12.90;73.70
37794;DHT22;23632;48.826;15.176;2023-02-18T00:14:02;12.90;73.80
37794;DHT22;23632;48.826;15.176;2023-02-18T00:16:30;12.90;74.00
37794;DHT22;23632;48.826;15.176;2023-02-18T00:19:00;12.80;74.00
37794;DHT22;23632;48.826;15.176;2023-02-18T00:21:29;12.80;74.10
37794;DHT22;23632;48.826;15.176;2023-02-18T00:23:58;12.80;74.20
37794;DHT22;23632;48.826;15.176;2023-02-18T00:26:26;12.80;74.30
37794;DHT22;23632;48.826;15.176;2023-02-18T00:28:54;12.80;74.30
37794;DHT22;23632;48.826;15.176;2023-02-18T00:33:51;12.80;74.30
37794;DHT22;23632;48.826;15.176;2023-02-18T00:36:20;12.80;74.30
37794;DHT22;23632;48.826;15.176;2023-02-18T00:38:51;12.90;74.30
37794;DHT22;23632;48.826;15.176;2023-02-18T00:41:20;12.90;74.30
37794;DHT22;23632;48.826;15.176;2023-02-18T00:43:48;12.90;74.30
37794;DHT22;23632;48.826;15.176;2023-02-18T00:46:18;12.90;74.20
37794;DHT22;23632;48.826;15.176;2023-02-18T00:48:46;12.90;74.20
37794;DHT22;23632;48.826;15.176;2023-02-18T00:51:13;12.90;74.20
37794;DHT22;23632;48.826;15.176;2023-02-18T00:53:40;12.90;74.10
37794;DHT22;23632;48.826;15.176;2023-02-18T00:56:08;13.00;74.20
37794;DHT22;23632;48.826;15.176;2023-02-18T00:58:36;13.00;74.20
37794;DHT22;23632;48.826;15.176;2023-02-18T01:01:04;12.90;74.00
37794;DHT22;23632;48.826;15.176;2023-02-18T01:03:34;13.00;74.00
37794;DHT22;23632;48.826;15.176;2023-02-18T01:06:02;13.00;73.80
37794;DHT22;23632;48.826;15.176;2023-02-18T01:08:32;13.00;73.70
37794;DHT22;23632;48.826;15.176;2023-02-18T01:11:00;13.00;73.70
37794;DHT22;23632;48.826;15.176;2023-02-18T01:13:28;13.00;73.80
37794;DHT22;23632;48.826;15.176;2023-02-18T01:15:55;12.90;73.80
37794;DHT22;23632;48.826;15.176;2023-02-18T01:18:24;12.90;73.70
37794;DHT22;23632;48.826;15.176;2023-02-18T01:20:52;12.90;73.90
37794;DHT22;23632;48.826;15.176;2023-02-18T01:23:19;12.80;73.90
37794;DHT22;23632;48.826;15.176;2023-02-18T01:25:47;12.80;74.10
37794;DHT22;23632;48.826;15.176;2023-02-18T01:28:15;12.80;74.20
37794;DHT22;23632;48.826;15.176;2023-02-18T01:30:42;12.80;74.20
37794;DHT22;23632;48.826;15.176;2023-02-18T01:33:09;12.80;74.20
37794;DHT22;23632;48.826;15.176;2023-02-18T01:35:39;12.80;74.20
37794;DHT22;23632;48.826;15.176;2023-02-18T01:38:06;12.80;74.10
37794;DHT22;23632;48.826;15.176;2023-02-18T01:40:35;12.90;74.20
37794;DHT22;23632;48.826;15.176;2023-02-18T01:43:02;12.90;74.30
37794;DHT22;23632;48.826;15.176;2023-02-18T01:51:29;12.80;74.30
37794;DHT22;23632;48.826;15.176;2023-02-18T01:56:49;12.80;74.20
37794;DHT22;23632;48.826;15.176;2023-02-18T01:59:28;12.80;74.30
37794;DHT22;23632;48.826;15.176;2023-02-18T02:01:57;12.80;74.30
37794;DHT22;23632;48.826;15.176;2023-02-18T02:04:28;12.80;74.40
37794;DHT22;23632;48.826;15.176;2023-02-18T02:06:55;12.80;74.40
37794;DHT22;23632;48.826;15.176;2023-02-18T02:09:24;12.80;74.40
37794;DHT22;23632;48.826;15.176;2023-02-18T02:27:25;12.70;74.50
37794;DHT22;23632;48.826;15.176;2023-02-18T02:30:24;12.70;74.70
37794;DHT22;23632;48.826;15.176;2023-02-18T02:35:55;12.70;74.70
37794;DHT22;23632;48.826;15.176;2023-02-18T02:44:18;12.60;74.60
37794;DHT22;23632;48.826;15.176;2023-02-18T02:46:47;12.70;74.70
37794;DHT22;23632;48.826;15.176;2023-02-18T02:52:12;12.60;74.70
37794;DHT22;23632;48.826;15.176;2023-02-18T02:54:43;12.60;75.50
37794;DHT22;23632;48.826;15.176;2023-02-18T03:00:19;12.60;74.70
37794;DHT22;23632;48.826;15.176;2023-02-18T03:06:42;12.60;74.70
37794;DHT22;23632;48.826;15.176;2023-02-18T03:14:42;12.60;74.80
37794;DHT22;23632;48.826;15.176;2023-02-18T03:17:29;12.60;74.90
37794;DHT22;23632;48.826;15.176;2023-02-18T03:20:06;12.60;75.10
37794;DHT22;23632;48.826;15.176;2023-02-18T03:22:43;12.60;75.00
37794;DHT22;23632;48.826;15.176;2023-02-18T03:25:13;12.60;75.00
37794;DHT22;23632;48.826;15.176;2023-02-18T03:27:59;12.60;75.10
37794;DHT22;23632;48.826;15.176;2023-02-18T03:30:41;12.60;75.20
37794;DHT22;23632;48.826;15.176;2023-02-18T03:33:30;12.50;76.40
37794;DHT22;23632;48.826;15.176;2023-02-18T03:36:02;12.50;75.80
37794;DHT22;23632;48.826;15.176;2023-02-18T03:38:34;12.40;75.70
37794;DHT22;23632;48.826;15.176;2023-02-18T03:41:04;12.40;75.60
37794;DHT22;23632;48.826;15.176;2023-02-18T03:43:33;12.50;76.40
37794;DHT22;23632;48.826;15.176;2023-02-18T03:46:01;12.50;75.50
37794;DHT22;23632;48.826;15.176;2023-02-18T03:48:29;12.50;75.50
37794;DHT22;23632;48.826;15.176;2023-02-18T03:50:56;12.50;75.40
37794;DHT22;23632;48.826;15.176;2023-02-18T03:53:23;12.60;75.50
37794;DHT22;23632;48.826;15.176;2023-02-18T03:55:50;12.50;75.40
37794;DHT22;23632;48.826;15.176;2023-02-18T03:58:17;12.50;75.30
37794;DHT22;23632;48.826;15.176;2023-02-18T04:00:44;12.60;75.30
37794;DHT22;23632;48.826;15.176;2023-02-18T04:03:11;12.60;75.20
37794;DHT22;23632;48.826;15.176;2023-02-18T04:05:38;12.70;75.10
37794;DHT22;23632;48.826;15.176;2023-02-18T04:08:05;12.60;75.00
37794;DHT22;23632;48.826;15.176;2023-02-18T04:10:32;12.70;75.00
37794;DHT22;23632;48.826;15.176;2023-02-18T04:12:59;12.70;75.00
37794;DHT22;23632;48.826;15.176;2023-02-18T04:15:26;12.70;75.00
37794;DHT22;23632;48.826;15.176;2023-02-18T04:17:53;12.70;75.00
37794;DHT22;23632;48.826;15.176;2023-02-18T04:20:21;12.70;75.00
37794;DHT22;23632;48.826;15.176;2023-02-18T04:22:48;12.70;75.10
37794;DHT22;23632;48.826;15.176;2023-02-18T04:25:15;12.60;75.00
37794;DHT22;23632;48.826;15.176;2023-02-18T04:27:42;12.70;74.90
37794;DHT22;23632;48.826;15.176;2023-02-18T04:30:09;12.70;74.80
37794;DHT22;23632;48.826;15.176;2023-02-18T04:32:37;12.70;74.80
37794;DHT22;23632;48.826;15.176;2023-02-18T04:35:05;12.70;74.70
37794;DHT22;23632;48.826;15.176;2023-02-18T04:37:32;12.70;74.70
37794;DHT22;23632;48.826;15.176;2023-02-18T04:39:59;12.70;74.80
37794;DHT22;23632;48.826;15.176;2023-02-18T04:42:26;12.70;74.90
37794;DHT22;23632;48.826;15.176;2023-02-18T04:44:53;12.70;74.90
37794;DHT22;23632;48.826;15.176;2023-02-18T04:47:20;12.70;75.70
37794;DHT22;23632;48.826;15.176;2023-02-18T04:49:47;12.60;74.80
37794;DHT22;23632;48.826;15.176;2023-02-18T04:52:14;12.70;74.90
37794;DHT22;23632;48.826;15.176;2023-02-18T04:54:41;12.70;74.90
37794;DHT22;23632;48.826;15.176;2023-02-18T04:57:08;12.70;75.00
37794;DHT22;23632;48.826;15.176;2023-02-18T04:59:36;12.70;75.30
37794;DHT22;23632;48.826;15.176;2023-02-18T05:02:03;12.70;76.30
37794;DHT22;23632;48.826;15.176;2023-02-18T05:04:31;12.60;76.40
37794;DHT22;23632;48.826;15.176;2023-02-18T05:06:58;12.50;76.40
37794;DHT22;23632;48.826;15.176;2023-02-18T05:09:25;12.50;76.40
37794;DHT22;23632;48.826;15.176;2023-02-18T05:11:52;12.40;76.30
37794;DHT22;23632;48.826;15.176;2023-02-18T05:14:19;12.40;76.40
37794;DHT22;23632;48.826;15.176;2023-02-18T05:16:46;12.30;76.70
37794;DHT22;23632;48.826;15.176;2023-02-18T05:19:14;12.20;76.60
37794;DHT22;23632;48.826;15.176;2023-02-18T05:21:42;12.20;76.80
37794;DHT22;23632;48.826;15.176;2023-02-18T05:24:09;12.20;77.10
37794;DHT22;23632;48.826;15.176;2023-02-18T05:26:36;12.10;78.10
37794;DHT22;23632;48.826;15.176;2023-02-18T05:29:03;12.00;77.40
37794;DHT22;23632;48.826;15.176;2023-02-18T05:31:30;12.00;77.30
37794;DHT22;23632;48.826;15.176;2023-02-18T05:33:58;12.00;77.30
37794;DHT22;23632;48.826;15.176;2023-02-18T05:36:25;12.00;77.30
37794;DHT22;23632;48.826;15.176;2023-02-18T05:38:52;12.10;77.30
37794;DHT22;23632;48.826;15.176;2023-02-18T05:41:20;12.00;77.10
37794;DHT22;23632;48.826;15.176;2023-02-18T05:43:47;12.00;77.00
37794;DHT22;23632;48.826;15.176;2023-02-18T05:46:33;12.00;76.90
37794;DHT22;23632;48.826;15.176;2023-02-18T05:49:00;12.00;76.70
37794;DHT22;23632;48.826;15.176;2023-02-18T05:51:27;12.00;76.60
37794;DHT22;23632;48.826;15.176;2023-02-18T05:53:54;12.10;76.50
37794;DHT22;23632;48.826;15.176;2023-02-18T05:56:21;12.10;76.30
37794;DHT22;23632;48.826;15.176;2023-02-18T05:58:48;12.10;76.20
37794;DHT22;23632;48.826;15.176;2023-02-18T06:01:16;12.10;76.10
37794;DHT22;23632;48.826;15.176;2023-02-18T06:03:43;12.10;76.10
37794;DHT22;23632;48.826;15.176;2023-02-18T06:06:10;12.10;76.10
37794;DHT22;23632;48.826;15.176;2023-02-18T06:08:37;12.20;76.10
37794;DHT22;23632;48.826;15.176;2023-02-18T06:11:04;12.20;76.10
37794;DHT22;23632;48.826;15.176;2023-02-18T06:13:31;12.20;76.10
37794;DHT22;23632;48.826;15.176;2023-02-18T06:15:59;12.20;76.10
37794;DHT22;23632;48.826;15.176;2023-02-18T06:18:26;12.20;76.10
37794;DHT22;23632;48.826;15.176;2023-02-18T06:20:53;12.20;76.10
37794;DHT22;23632;48.826;15.176;2023-02-18T06:23:20;12.20;76.10
37794;DHT22;23632;48.826;15.176;2023-02-18T06:25:48;12.30;76.20
37794;DHT22;23632;48.826;15.176;2023-02-18T06:28:16;12.30;76.20
37794;DHT22;23632;48.826;15.176;2023-02-18T06:30:44;12.30;76.20
37794;DHT22;23632;48.826;15.176;2023-02-18T06:33:12;12.40;76.20
37794;DHT22;23632;48.826;15.176;2023-02-18T06:35:39;12.40;76.30
37794;DHT22;23632;48.826;15.176;2023-02-18T06:38:06;12.40;76.30
37794;DHT22;23632;48.826;15.176;2023-02-18T06:40:33;12.40;76.20
37794;DHT22;23632;48.826;15.176;2023-02-18T06:43:00;12.50;76.10
37794;DHT22;23632;48.826;15.176;2023-02-18T06:45:27;12.50;76.00
37794;DHT22;23632;48.826;15.176;2023-02-18T06:47:54;12.50;76.40
37794;DHT22;23632;48.826;15.176;2023-02-18T06:50:21;12.50;76.40
37794;DHT22;23632;48.826;15.176;2023-02-18T06:52:48;12.50;76.40
37794;DHT22;23632;48.826;15.176;2023-02-18T06:55:15;12.60;76.20
37794;DHT22;23632;48.826;15.176;2023-02-18T06:57:42;12.60;75.80
37794;DHT22;23632;48.826;15.176;2023-02-18T07:00:10;12.60;76.20
37794;DHT22;23632;48.826;15.176;2023-02-18T07:02:37;12.50;76.40
37794;DHT22;23632;48.826;15.176;2023-02-18T07:05:04;12.50;76.40
37794;DHT22;23632;48.826;15.176;2023-02-18T07:07:31;12.50;76.40
37794;DHT22;23632;48.826;15.176;2023-02-18T07:09:58;12.50;76.10
37794;DHT22;23632;48.826;15.176;2023-02-18T07:12:25;12.50;75.80
37794;DHT22;23632;48.826;15.176;2023-02-18T07:14:52;12.50;75.70
37794;DHT22;23632;48.826;15.176;2023-02-18T07:17:19;12.50;75.70
37794;DHT22;23632;48.826;15.176;2023-02-18T07:19:46;12.50;75.60
37794;DHT22;23632;48.826;15.176;2023-02-18T07:22:13;12.60;75.50
37794;DHT22;23632;48.826;15.176;2023-02-18T07:24:41;12.60;75.50
37794;DHT22;23632;48.826;15.176;2023-02-18T07:27:08;12.60;75.40
37794;DHT22;23632;48.826;15.176;2023-02-18T07:29:35;12.70;75.20
37794;DHT22;23632;48.826;15.176;2023-02-18T07:32:02;12.80;75.00
37794;DHT22;23632;48.826;15.176;2023-02-18T07:34:29;12.80;74.90
37794;DHT22;23632;48.826;15.176;2023-02-18T07:36:56;12.80;74.70
37794;DHT22;23632;48.826;15.176;2023-02-18T07:39:23;12.80;74.90
37794;DHT22;23632;48.826;15.176;2023-02-18T07:41:50;12.90;74.60
37794;DHT22;23632;48.826;15.176;2023-02-18T07:44:17;12.90;74.50
37794;DHT22;23632;48.826;15.176;2023-02-18T07:46:44;13.00;74.30
37794;DHT22;23632;48.826;15.176;2023-02-18T07:49:14;13.10;74.00
37794;DHT22;23632;48.826;15.176;2023-02-18T07:51:41;13.20;74.00
37794;DHT22;23632;48.826;15.176;2023-02-18T07:54:08;13.10;73.90
37794;DHT22;23632;48.826;15.176;2023-02-18T07:56:35;13.20;73.90
37794;DHT22;23632;48.826;15.176;2023-02-18T07:59:02;13.20;73.90
37794;DHT22;23632;48.826;15.176;2023-02-18T08:01:29;13.30;73.70
37794;DHT22;23632;48.826;15.176;2023-02-18T08:03:56;13.40;73.20
37794;DHT22;23632;48.826;15.176;2023-02-18T08:06:30;13.50;73.30
37794;DHT22;23632;48.826;15.176;2023-02-18T08:09:00;13.50;73.00
37794;DHT22;23632;48.826;15.176;2023-02-18T08:11:27;13.50;72.80
37794;DHT22;23632;48.826;15.176;2023-02-18T08:13:54;13.50;72.80
37794;DHT22;23632;48.826;15.176;2023-02-18T08:16:21;13.50;72.70
37794;DHT22;23632;48.826;15.176;2023-02-18T08:18:49;13.60;72.50
37794;DHT22;23632;48.826;15.176;2023-02-18T08:21:18;13.60;72.50
37794;DHT22;23632;48.826;15.176;2023-02-18T08:23:47;13.70;72.60
37794;DHT22;23632;48.826;15.176;2023-02-18T08:26:14;13.80;72.60
37794;DHT22;23632;48.826;15.176;2023-02-18T08:28:43;13.90;71.90
37794;DHT22;23632;48.826;15.176;2023-02-18T08:31:27;14.00;71.60
37794;DHT22;23632;48.826;15.176;2023-02-18T08:33:57;14.00;71.70
37794;DHT22;23632;48.826;15.176;2023-02-18T08:36:26;14.00;71.40
37794;DHT22;23632;48.826;15.176;2023-02-18T08:38:53;14.10;71.60
37794;DHT22;23632;48.826;15.176;2023-02-18T08:41:21;14.10;71.00
37794;DHT22;23632;48.826;15.176;2023-02-18T08:43:48;14.10;71.10
37794;DHT22;23632;48.826;15.176;2023-02-18T08:46:16;14.10;71.00
37794;DHT22;23632;48.826;15.176;2023-02-18T08:49:01;14.10;71.00
37794;DHT22;23632;48.826;15.176;2023-02-18T08:51:28;14.00;71.40
37794;DHT22;23632;48.826;15.176;2023-02-18T08:53:57;14.00;71.30
37794;DHT22;23632;48.826;15.176;2023-02-18T08:56:24;14.10;71.40
37794;DHT22;23632;48.826;15.176;2023-02-18T08:58:51;14.10;71.00
37794;DHT22;23632;48.826;15.176;2023-02-18T09:01:18;14.10;71.10
37794;DHT22;23632;48.826;15.176;2023-02-18T09:03:46;14.20;70.90
37794;DHT22;23632;48.826;15.176;2023-02-18T09:06:14;14.20;71.10
37794;DHT22;23632;48.826;15.176;2023-02-18T09:08:41;14.20;70.90
37794;DHT22;23632;48.826;15.176;2023-02-18T09:11:09;14.20;71.00
37794;DHT22;23632;48.826;15.176;2023-02-18T09:13:36;14.30;70.90
37794;DHT22;23632;48.826;15.176;2023-02-18T09:16:11;14.30;70.80
37794;DHT22;23632;48.826;15.176;2023-02-18T09:18:40;14.30;70.80
37794;DHT22;23632;48.826;15.176;2023-02-18T09:21:09;14.30;70.70
37794;DHT22;23632;48.826;15.176;2023-02-18T09:23:39;14.30;70.60
37794;DHT22;23632;48.826;15.176;2023-02-18T09:26:08;14.30;70.50
37794;DHT22;23632;48.826;15.176;2023-02-18T09:28:36;14.30;70.60
37794;DHT22;23632;48.826;15.176;2023-02-18T09:31:08;14.20;70.50
37794;DHT22;23632;48.826;15.176;2023-02-18T09:33:40;14.20;70.70
37794;DHT22;23632;48.826;15.176;2023-02-18T09:36:12;14.20;71.40
37794;DHT22;23632;48.826;15.176;2023-02-18T09:38:39;14.20;70.80
37794;DHT22;23632;48.826;15.176;2023-02-18T09:41:13;14.20;70.70
37794;DHT22;23632;48.826;15.176;2023-02-18T09:44:03;14.20;70.90
37794;DHT22;23632;48.826;15.176;2023-02-18T09:46:41;14.40;70.80
37794;DHT22;23632;48.826;15.176;2023-02-18T09:49:21;14.40;70.40
37794;DHT22;23632;48.826;15.176;2023-02-18T09:51:52;14.50;69.80
37794;DHT22;23632;48.826;15.176;2023-02-18T09:54:20;14.60;70.20
37794;DHT22;23632;48.826;15.176;2023-02-18T09:56:48;14.70;69.90
37794;DHT22;23632;48.826;15.176;2023-02-18T09:59:18;14.70;69.70
37794;DHT22;23632;48.826;15.176;2023-02-18T10:01:49;14.80;70.00
37794;DHT22;23632;48.826;15.176;2023-02-18T10:04:35;14.80;69.40
37794;DHT22;23632;48.826;15.176;2023-02-18T10:07:17;14.90;69.50
37794;DHT22;23632;48.826;15.176;2023-02-18T10:09:47;14.90;69.50
37794;DHT22;23632;48.826;15.176;2023-02-18T10:12:21;15.00;69.30
37794;DHT22;23632;48.826;15.176;2023-02-18T10:14:55;15.10;69.90
37794;DHT22;23632;48.826;15.176;2023-02-18T10:17:26;15.20;68.80
37794;DHT22;23632;48.826;15.176;2023-02-18T10:19:57;15.20;68.50
37794;DHT22;23632;48.826;15.176;2023-02-18T10:22:25;15.30;68.90
37794;DHT22;23632;48.826;15.176;2023-02-18T10:24:56;15.40;68.60
37794;DHT22;23632;48.826;15.176;2023-02-18T10:27:31;15.50;68.20
37794;DHT22;23632;48.826;15.176;2023-02-18T10:32:44;15.50;68.30
37794;DHT22;23632;48.826;15.176;2023-02-18T10:38:12;15.60;67.70
37794;DHT22;23632;48.826;15.176;2023-02-18T10:40:52;15.60;68.20
37794;DHT22;23632;48.826;15.176;2023-02-18T10:43:42;15.60;67.80
37794;DHT22;23632;48.826;15.176;2023-02-18T10:46:30;15.70;67.70
37794;DHT22;23632;48.826;15.176;2023-02-18T10:52:15;15.60;67.80
37794;DHT22;23632;48.826;15.176;2023-02-18T10:55:01;15.60;68.10
37794;DHT22;23632;48.826;15.176;2023-02-18T10:57:30;15.70;67.70
37794;DHT22;23632;48.826;15.176;2023-02-18T11:00:05;15.80;67.50
37794;DHT22;23632;48.826;15.176;2023-02-18T11:02:41;15.80;67.00
37794;DHT22;23632;48.826;15.176;2023-02-18T11:05:26;15.80;67.10
37794;DHT22;23632;48.826;15.176;2023-02-18T11:07:55;15.70;67.40
37794;DHT22;23632;48.826;15.176;2023-02-18T11:10:25;15.70;67.10
37794;DHT22;23632;48.826;15.176;2023-02-18T11:13:04;15.70;67.20
37794;DHT22;23632;48.826;15.176;2023-02-18T11:15:32;15.50;67.40
37794;DHT22;23632;48.826;15.176;2023-02-18T11:20:58;15.40;67.30
37794;DHT22;23632;48.826;15.176;2023-02-18T11:23:26;15.30;67.10
37794;DHT22;23632;48.826;15.176;2023-02-18T11:31:08;15.00;67.60
37794;DHT22;23632;48.826;15.176;2023-02-18T11:33:43;14.80;67.70
37794;DHT22;23632;48.826;15.176;2023-02-18T11:36:18;14.80;67.80
37794;DHT22;23632;48.826;15.176;2023-02-18T11:39:21;14.80;68.00
37794;DHT22;23632;48.826;15.176;2023-02-18T11:42:17;14.70;68.10
37794;DHT22;23632;48.826;15.176;2023-02-18T11:44:58;14.60;68.20
37794;DHT22;23632;48.826;15.176;2023-02-18T11:47:33;14.60;68.00
37794;DHT22;23632;48.826;15.176;2023-02-18T11:50:15;14.50;68.10
37794;DHT22;23632;48.826;15.176;2023-02-18T11:52:46;14.50;68.10
37794;DHT22;23632;48.826;15.176;2023-02-18T11:55:22;14.50;68.10
37794;DHT22;23632;48.826;15.176;2023-02-18T11:57:59;14.60;68.20
37794;DHT22;23632;48.826;15.176;2023-02-18T12:00:42;14.70;68.00
37794;DHT22;23632;48.826;15.176;2023-02-18T12:03:46;14.70;67.80
37794;DHT22;23632;48.826;15.176;2023-02-18T12:06:27;14.60;67.60
37794;DHT22;23632;48.826;15.176;2023-02-18T12:11:55;14.50;67.80
37794;DHT22;23632;48.826;15.176;2023-02-18T12:14:27;14.40;67.90
37794;DHT22;23632;48.826;15.176;2023-02-18T12:17:24;14.30;67.80
37794;DHT22;23632;48.826;15.176;2023-02-18T12:26:57;14.20;68.20
37794;DHT22;23632;48.826;15.176;2023-02-18T12:32:29;14.20;68.00
37794;DHT22;23632;48.826;15.176;2023-02-18T12:41:43;14.50;66.90
37794;DHT22;23632;48.826;15.176;2023-02-18T12:47:33;14.70;66.70
37794;DHT22;23632;48.826;15.176;2023-02-18T12:50:43;14.80;66.60
37794;DHT22;23632;48.826;15.176;2023-02-18T12:56:42;14.70;66.20
37794;DHT22;23632;48.826;15.176;2023-02-18T12:59:47;14.70;66.30
37794;DHT22;23632;48.826;15.176;2023-02-18T13:03:01;14.80;66.40
37794;DHT22;23632;48.826;15.176;2023-02-18T13:12:14;14.80;65.70
37794;DHT22;23632;48.826;15.176;2023-02-18T13:14:59;14.80;65.80
37794;DHT22;23632;48.826;15.176;2023-02-18T13:17:34;14.80;65.90
37794;DHT22;23632;48.826;15.176;2023-02-18T13:20:16;14.80;65.10
37794;DHT22;23632;48.826;15.176;2023-02-18T13:22:47;14.70;65.70
37794;DHT22;23632;48.826;15.176;2023-02-18T13:25:17;14.70;65.50
37794;DHT22;23632;48.826;15.176;2023-02-18T13:27:58;14.70;65.80
37794;DHT22;23632;48.826;15.176;2023-02-18T13:31:04;14.70;65.40
37794;DHT22;23632;48.826;15.176;2023-02-18T13:37:00;14.80;65.20
37794;DHT22;23632;48.826;15.176;2023-02-18T13:39:32;14.90;65.10
37794;DHT22;23632;48.826;15.176;2023-02-18T13:47:42;14.80;64.90
37794;DHT22;23632;48.826;15.176;2023-02-18T13:53:13;14.90;65.00
37794;DHT22;23632;48.826;15.176;2023-02-18T13:58:51;14.80;66.20
37794;DHT22;23632;48.826;15.176;2023-02-18T14:01:29;14.70;65.10
37794;DHT22;23632;48.826;15.176;2023-02-18T14:12:41;14.60;65.30
37794;DHT22;23632;48.826;15.176;2023-02-18T14:20:47;14.60;65.20
37794;DHT22;23632;48.826;15.176;2023-02-18T14:36:56;14.50;65.20
37794;DHT22;23632;48.826;15.176;2023-02-18T14:48:03;14.50;65.10
37794;DHT22;23632;48.826;15.176;2023-02-18T14:50:42;14.40;65.20
37794;DHT22;23632;48.826;15.176;2023-02-18T14:53:22;14.50;65.30
37794;DHT22;23632;48.826;15.176;2023-02-18T14:55:54;14.50;65.50
37794;DHT22;23632;48.826;15.176;2023-02-18T15:01:18;14.60;65.10
37794;DHT22;23632;48.826;15.176;2023-02-18T15:03:52;14.70;65.30
37794;DHT22;23632;48.826;15.176;2023-02-18T15:06:24;14.80;65.30
37794;DHT22;23632;48.826;15.176;2023-02-18T15:09:20;14.90;64.90
37794;DHT22;23632;48.826;15.176;2023-02-18T15:12:08;14.90;65.10
37794;DHT22;23632;48.826;15.176;2023-02-18T15:14:37;15.00;64.90
37794;DHT22;23632;48.826;15.176;2023-02-18T15:17:22;15.00;64.70
37794;DHT22;23632;48.826;15.176;2023-02-18T15:19:55;15.00;64.40
37794;DHT22;23632;48.826;15.176;2023-02-18T15:22:28;14.90;64.30
37794;DHT22;23632;48.826;15.176;2023-02-18T15:24:57;14.80;64.60
37794;DHT22;23632;48.826;15.176;2023-02-18T15:27:33;14.70;64.60
37794;DHT22;23632;48.826;15.176;2023-02-18T15:30:19;14.60;64.70
37794;DHT22;23632;48.826;15.176;2023-02-18T15:32:58;14.60;64.70
37794;DHT22;23632;48.826;15.176;2023-02-18T15:35:31;14.70;64.90
37794;DHT22;23632;48.826;15.176;2023-02-18T15:38:00;14.50;64.80
37794;DHT22;23632;48.826;15.176;2023-02-18T15:40:32;14.50;64.90
37794;DHT22;23632;48.826;15.176;2023-02-18T15:43:03;14.40;64.70
37794;DHT22;23632;48.826;15.176;2023-02-18T15:45:53;14.40;65.00
37794;DHT22;23632;48.826;15.176;2023-02-18T15:51:04;14.20;65.20
37794;DHT22;23632;48.826;15.176;2023-02-18T15:53:45;14.20;65.20
37794;DHT22;23632;48.826;15.176;2023-02-18T15:56:25;14.10;65.20
37794;DHT22;23632;48.826;15.176;2023-02-18T15:59:08;14.00;65.40
37794;DHT22;23632;48.826;15.176;2023-02-18T16:01:57;14.00;65.50
37794;DHT22;23632;48.826;15.176;2023-02-18T16:04:38;13.90;65.60
37794;DHT22;23632;48.826;15.176;2023-02-18T16:07:23;13.80;65.80
37794;DHT22;23632;48.826;15.176;2023-02-18T16:12:49;13.70;65.90
37794;DHT22;23632;48.826;15.176;2023-02-18T16:15:24;13.60;66.00
37794;DHT22;23632;48.826;15.176;2023-02-18T16:17:53;13.60;66.00
37794;DHT22;23632;48.826;15.176;2023-02-18T16:20:52;13.60;66.00
37794;DHT22;23632;48.826;15.176;2023-02-18T16:23:51;13.60;66.10
37794;DHT22;23632;48.826;15.176;2023-02-18T16:29:25;13.60;66.20
37794;DHT22;23632;48.826;15.176;2023-02-18T16:32:13;13.60;66.30
37794;DHT22;23632;48.826;15.176;2023-02-18T16:34:40;13.60;66.30
37794;DHT22;23632;48.826;15.176;2023-02-18T16:37:08;13.70;66.10
37794;DHT22;23632;48.826;15.176;2023-02-18T16:39:54;13.70;66.10
37794;DHT22;23632;48.826;15.176;2023-02-18T16:42:22;13.70;66.40
37794;DHT22;23632;48.826;15.176;2023-02-18T16:44:50;13.70;66.00
37794;DHT22;23632;48.826;15.176;2023-02-18T16:47:18;13.70;66.00
37794;DHT22;23632;48.826;15.176;2023-02-18T16:49:48;13.80;66.10
37794;DHT22;23632;48.826;15.176;2023-02-18T16:52:16;13.80;66.10
37794;DHT22;23632;48.826;15.176;2023-02-18T16:54:44;13.80;66.00
37794;DHT22;23632;48.826;15.176;2023-02-18T16:57:13;13.80;66.00
37794;DHT22;23632;48.826;15.176;2023-02-18T16:59:40;13.80;66.10
37794;DHT22;23632;48.826;15.176;2023-02-18T17:02:16;13.80;66.10
37794;DHT22;23632;48.826;15.176;2023-02-18T17:04:45;13.80;66.30
37794;DHT22;23632;48.826;15.176;2023-02-18T17:07:12;13.90;66.30
37794;DHT22;23632;48.826;15.176;2023-02-18T17:09:39;13.90;66.30
37794;DHT22;23632;48.826;15.176;2023-02-18T17:12:06;13.90;66.40
37794;DHT22;23632;48.826;15.176;2023-02-18T17:14:33;13.90;66.40
37794;DHT22;23632;48.826;15.176;2023-02-18T17:17:00;13.80;66.50
37794;DHT22;23632;48.826;15.176;2023-02-18T17:19:27;13.90;66.70
37794;DHT22;23632;48.826;15.176;2023-02-18T17:21:54;13.80;66.60
37794;DHT22;23632;48.826;15.176;2023-02-18T17:24:21;13.80;66.80
37794;DHT22;23632;48.826;15.176;2023-02-18T17:26:48;13.80;66.80
37794;DHT22;23632;48.826;15.176;2023-02-18T17:29:15;13.80;66.70
37794;DHT22;23632;48.826;15.176;2023-02-18T17:31:43;13.90;66.80
37794;DHT22;23632;48.826;15.176;2023-02-18T17:34:24;13.90;66.80
37794;DHT22;23632;48.826;15.176;2023-02-18T17:36:53;13.80;66.90
37794;DHT22;23632;48.826;15.176;2023-02-18T17:39:20;13.80;66.90
37794;DHT22;23632;48.826;15.176;2023-02-18T17:41:48;13.80;67.00
37794;DHT22;23632;48.826;15.176;2023-02-18T17:44:18;13.80;67.00
37794;DHT22;23632;48.826;15.176;2023-02-18T17:46:47;13.80;67.10
37794;DHT22;23632;48.826;15.176;2023-02-18T17:49:18;13.80;67.30
37794;DHT22;23632;48.826;15.176;2023-02-18T17:51:45;13.70;67.30
37794;DHT22;23632;48.826;15.176;2023-02-18T17:54:14;13.70;67.30
37794;DHT22;23632;48.826;15.176;2023-02-18T17:56:43;13.70;67.30
37794;DHT22;23632;48.826;15.176;2023-02-18T17:59:10;13.70;67.30
37794;DHT22;23632;48.826;15.176;2023-02-18T18:01:38;13.70;67.30
37794;DHT22;23632;48.826;15.176;2023-02-18T18:04:16;13.80;67.30
37794;DHT22;23632;48.826;15.176;2023-02-18T18:06:44;13.80;67.20
37794;DHT22;23632;48.826;15.176;2023-02-18T18:09:15;13.80;67.20
37794;DHT22;23632;48.826;15.176;2023-02-18T18:11:42;13.80;67.20
37794;DHT22;23632;48.826;15.176;2023-02-18T18:14:12;13.80;67.20
37794;DHT22;23632;48.826;15.176;2023-02-18T18:16:40;13.90;67.20
37794;DHT22;23632;48.826;15.176;2023-02-18T18:19:07;13.80;67.30
37794;DHT22;23632;48.826;15.176;2023-02-18T18:21:35;13.80;67.20
37794;DHT22;23632;48.826;15.176;2023-02-18T18:24:03;13.80;67.20
37794;DHT22;23632;48.826;15.176;2023-02-18T18:26:30;13.80;67.30